Flight Track Log - Related Links

Times and Time Zones

All times are in EDT time to prevent confusion due to time zone crossing. See the EEA2755 flight status page for this flight to view local times or setup timezone preferences in your user account.

Time Position Orientation Groundspeed Altitude Reporting Facility
EDT Latitude Longitude Course Direction KTS MPH feet Rate Location/Type
Wed 11:26:00 PM 35.0238 119.1403 26° Northeast  Level Estimated
Wed 11:27:00 PM 35.1031 119.1874 26° Northeast  Level Estimated
Wed 11:28:00 PM 35.1824 119.2346 26° Northeast  Level Estimated
Wed 11:29:00 PM 35.2617 119.2819 26° Northeast  Level Estimated
Wed 11:30:00 PM 35.3409 119.3293 26° Northeast  Level Estimated
Wed 11:31:00 PM 35.4202 119.3768 26° Northeast  Level Estimated
Wed 11:32:00 PM 35.4994 119.4244 26° Northeast  Level Estimated
Wed 11:33:00 PM 35.5786 119.4721 26° Northeast  Level Estimated
Wed 11:34:00 PM 35.6577 119.5199 26° Northeast  Level Estimated
Wed 11:35:00 PM 35.7369 119.5677 26° Northeast  Level Estimated
Wed 11:36:00 PM 35.8161 119.6157 26° Northeast  Level Estimated
Wed 11:37:00 PM 35.8952 119.6637 26° Northeast  Level Estimated
Wed 11:38:00 PM 35.9743 119.7119 26° Northeast  Level Estimated
Wed 11:39:00 PM 36.0534 119.7601 26° Northeast  Level Estimated
Wed 11:40:00 PM 36.1324 119.8085 26° Northeast  Level Estimated
Wed 11:41:00 PM 36.2115 119.8569 26° Northeast  Level Estimated
Wed 11:42:00 PM 36.2905 119.9055 26° Northeast  Level Estimated
Wed 11:43:00 PM 36.3695 119.9541 26° Northeast  Level Estimated
Wed 11:44:00 PM 36.4485 120.0029 26° Northeast  Level Estimated
Wed 11:45:00 PM 36.5275 120.0517 26° Northeast  Level Estimated
Wed 11:46:00 PM 36.6064 120.1006 26° Northeast  Level Estimated
Wed 11:47:00 PM 36.6853 120.1497 26° Northeast  Level Estimated
Wed 11:48:00 PM 36.7643 120.1988 27° Northeast  Level Estimated
Wed 11:49:00 PM 36.8431 120.2481 27° Northeast  Level Estimated
Wed 11:50:00 PM 36.9220 120.2974 27° Northeast  Level Estimated
Wed 11:51:00 PM 37.0009 120.3469 27° Northeast  Level Estimated
Wed 11:52:00 PM 37.0797 120.3964 27° Northeast  Level Estimated
Wed 11:53:00 PM 37.1585 120.4461 27° Northeast  Level Estimated
Wed 11:54:00 PM 37.2373 120.4958 27° Northeast  Level Estimated
Wed 11:55:00 PM 37.3160 120.5457 27° Northeast  Level Estimated
Wed 11:56:00 PM 37.3948 120.5956 27° Northeast  Level Estimated
Wed 11:57:00 PM 37.4735 120.6457 27° Northeast  Level Estimated
Wed 11:58:00 PM 37.5522 120.6959 27° Northeast  Level Estimated
Wed 11:59:00 PM 37.6309 120.7462 27° Northeast  Level Estimated
Thu 12:00:00 AM 37.7095 120.7966 27° Northeast  Level Estimated
Thu 12:01:00 AM 37.7882 120.8471 27° Northeast  Level Estimated
Thu 12:02:00 AM 37.8668 120.8977 27° Northeast  Level Estimated
Thu 12:03:00 AM 37.9454 120.9484 27° Northeast  Level Estimated
Thu 12:04:00 AM 38.0240 120.9992 27° Northeast  Level Estimated
Thu 12:05:00 AM 38.1025 121.0501 27° Northeast  Level Estimated
Thu 12:06:00 AM 38.1810 121.1012 27° Northeast  Level Estimated
Thu 12:07:00 AM 38.2595 121.1523 27° Northeast  Level Estimated
Thu 12:08:00 AM 38.3380 121.2036 27° Northeast  Level Estimated
Thu 12:09:00 AM 38.4165 121.2549 27° Northeast  Level Estimated
Thu 12:10:00 AM 38.4949 121.3064 27° Northeast  Level Estimated
Thu 12:11:00 AM 38.5733 121.3580 27° Northeast  Level Estimated
Thu 12:12:00 AM 38.6517 121.4097 27° Northeast  Level Estimated
Thu 12:13:00 AM 38.7301 121.4615 27° Northeast  Level Estimated
Thu 12:14:00 AM 38.8084 121.5135 27° Northeast  Level Estimated
Thu 12:15:00 AM 38.8868 121.5655 27° Northeast  Level Estimated
Thu 12:16:00 AM 38.9651 121.6177 27° Northeast  Level Estimated
Thu 12:17:00 AM 39.0434 121.6700 27° Northeast  Level Estimated
Thu 12:18:00 AM 39.1216 121.7224 27° Northeast  Level Estimated
Thu 12:19:00 AM 39.1998 121.7749 27° Northeast  Level Estimated
Thu 12:20:00 AM 39.2780 121.8275 28° Northeast  Level Estimated
Thu 12:21:00 AM 39.3562 121.8802 28° Northeast  Level Estimated
Thu 12:22:00 AM 39.4344 121.9331 28° Northeast  Level Estimated
Thu 12:23:00 AM 39.5125 121.9861 28° Northeast  Level Estimated
Thu 12:24:00 AM 39.5906 122.0392 28° Northeast  Level Estimated
Thu 12:25:00 AM 39.6687 122.0924 28° Northeast  Level Estimated
Thu 12:26:00 AM 39.7468 122.1457 28° Northeast  Level Estimated
Thu 12:27:00 AM 39.8248 122.1992 28° Northeast  Level Estimated
Thu 12:28:00 AM 39.9028 122.2528 28° Northeast  Level Estimated
Thu 12:29:00 AM 39.9808 122.3065 28° Northeast  Level Estimated
Thu 12:30:00 AM 40.0588 122.3603 28° Northeast  Level Estimated
Thu 12:31:00 AM 40.1367 122.4143 28° Northeast  Level Estimated
Thu 12:32:00 AM 40.2146 122.4684 28° Northeast  Level Estimated
Thu 12:33:00 AM 40.2925 122.5226 28° Northeast  Level Estimated
Thu 12:34:00 AM 40.3704 122.5769 28° Northeast  Level Estimated
Thu 12:35:00 AM 40.4482 122.6313 28° Northeast  Level Estimated
Thu 12:36:00 AM 40.5260 122.6859 28° Northeast  Level Estimated
Thu 12:37:00 AM 40.6038 122.7406 28° Northeast  Level Estimated
Thu 12:38:00 AM 40.6816 122.7954 28° Northeast  Level Estimated
Thu 12:39:00 AM 40.7593 122.8504 28° Northeast  Level Estimated
Thu 12:40:00 AM 40.8370 122.9055 28° Northeast  Level Estimated
Thu 12:41:00 AM 40.9147 122.9607 28° Northeast  Level Estimated
Thu 12:42:00 AM 40.9924 123.0161 28° Northeast  Level Estimated
Thu 12:43:00 AM 41.0700 123.0715 28° Northeast  Level Estimated
Thu 12:44:00 AM 41.1476 123.1271 28° Northeast  Level Estimated
Thu 12:45:00 AM 41.2252 123.1829 28° Northeast  Level Estimated
Thu 12:46:00 AM 41.3027 123.2388 28° Northeast  Level Estimated
Thu 12:47:00 AM 41.3802 123.2948 28° Northeast  Level Estimated
Thu 12:48:00 AM 41.4577 123.3509 28° Northeast  Level Estimated
Thu 12:49:00 AM 41.5352 123.4072 29° Northeast  Level Estimated
Thu 12:50:00 AM 41.6127 123.4636 29° Northeast  Level Estimated
Thu 12:51:00 AM 41.6398 123.4834 29° Northeast  Level Estimated
Thu 12:52:00 AM 41.6398 123.4834 North  Level Estimated
Thu 12:53:00 AM 41.6398 123.4834 North  Level Estimated
Thu 12:54:00 AM 41.6398 123.4834 North  Level Estimated
Thu 12:55:00 AM 41.6398 123.4834 North  Level Estimated
Thu 12:56:00 AM 41.6398 123.4834 North  Level Estimated
Thu 12:57:00 AM 41.6398 123.4834 North  Level Estimated
Thu 12:58:00 AM 41.6398 123.4834 North  Level Estimated
Thu 12:59:00 AM 41.6398 123.4834 North  Level Estimated

Login

Don't have an account? Register now (free) for customized features, flight alerts, and more!